createdAt,value
2022-09-06T00:01:39.161Z,2.53
2022-09-06T00:04:01.455Z,2.35
2022-09-06T00:06:23.797Z,2.78
2022-09-06T00:08:46.882Z,2.80
2022-09-06T00:11:09.743Z,2.40
2022-09-06T00:13:32.020Z,2.10
2022-09-06T00:15:54.544Z,2.58
2022-09-06T00:18:16.874Z,2.30
2022-09-06T00:20:41.441Z,2.33
2022-09-06T00:23:04.801Z,2.63
2022-09-06T00:25:27.579Z,2.55
2022-09-06T00:27:53.837Z,2.60
2022-09-06T00:30:16.109Z,3.15
2022-09-06T00:32:38.467Z,2.83
2022-09-06T00:35:00.803Z,2.92
2022-09-06T00:37:23.044Z,2.88
2022-09-06T00:39:45.749Z,2.92
2022-09-06T00:42:11.969Z,2.40
2022-09-06T00:44:34.246Z,2.85
2022-09-06T00:46:56.709Z,2.85
2022-09-06T00:49:39.267Z,2.70
2022-09-06T00:52:07.234Z,2.80
2022-09-06T00:54:29.680Z,3.97
2022-09-06T00:56:52.047Z,3.40
2022-09-06T00:59:14.977Z,2.90
2022-09-06T01:01:37.707Z,3.28
2022-09-06T01:04:00.652Z,3.60
2022-09-06T01:06:46.276Z,3.30
2022-09-06T01:09:28.796Z,3.47
2022-09-06T01:12:17.609Z,3.35
2022-09-06T01:14:42.922Z,3.67
2022-09-06T01:17:11.232Z,3.00
2022-09-06T01:19:50.107Z,3.30
2022-09-06T01:22:27.760Z,2.88
2022-09-06T01:25:00.487Z,2.97
2022-09-06T01:27:44.155Z,3.70
2022-09-06T01:30:18.137Z,3.38
2022-09-06T01:32:40.358Z,3.25
2022-09-06T01:35:25.985Z,3.67
2022-09-06T01:37:48.271Z,2.92
2022-09-06T01:40:10.621Z,3.60
2022-09-06T01:42:33.983Z,3.55
2022-09-06T01:44:59.259Z,3.70
2022-09-06T01:47:40.512Z,3.20
2022-09-06T01:50:18.546Z,3.30
2022-09-06T01:53:00.802Z,3.53
2022-09-06T01:55:41.841Z,3.53
2022-09-06T01:58:11.259Z,3.30
2022-09-06T02:00:37.925Z,3.05
2022-09-06T02:03:09.451Z,3.03
2022-09-06T02:05:34.452Z,3.10
2022-09-06T02:07:59.863Z,2.88
2022-09-06T02:10:32.075Z,3.60
2022-09-06T02:12:55.259Z,3.45
2022-09-06T02:15:22.093Z,3.30
2022-09-06T02:17:47.214Z,3.40
2022-09-06T02:20:11.193Z,3.40
2022-09-06T02:22:35.764Z,3.95
2022-09-06T02:24:59.967Z,3.00
2022-09-06T02:27:22.276Z,2.92
2022-09-06T02:29:44.902Z,3.28
2022-09-06T02:32:13.093Z,3.15
2022-09-06T02:34:37.572Z,3.33
2022-09-06T02:37:01.012Z,3.63
2022-09-06T02:39:23.621Z,3.42
2022-09-06T02:41:48.213Z,4.07
2022-09-06T02:44:10.549Z,3.90
2022-09-06T02:46:33.160Z,4.88
2022-09-06T02:48:55.501Z,4.68
2022-09-06T02:51:18.174Z,4.38
2022-09-06T02:53:40.430Z,4.28
2022-09-06T02:56:02.860Z,4.57
2022-09-06T02:58:25.336Z,4.55
2022-09-06T03:00:47.987Z,4.53
2022-09-06T03:03:10.342Z,4.60
2022-09-06T03:05:33.177Z,3.67
2022-09-06T03:07:55.733Z,3.55
2022-09-06T03:10:18.377Z,4.22
2022-09-06T03:12:40.657Z,3.83
2022-09-06T03:15:02.924Z,3.92
2022-09-06T03:17:25.319Z,3.13
2022-09-06T03:19:47.564Z,4.23
2022-09-06T03:22:09.860Z,4.28
2022-09-06T03:24:32.155Z,5.27
2022-09-06T03:26:54.487Z,4.77
2022-09-06T03:29:16.740Z,3.80
2022-09-06T03:31:39.077Z,4.83
2022-09-06T03:34:01.478Z,4.33
2022-09-06T03:36:23.799Z,4.47
2022-09-06T03:38:46.136Z,4.40
2022-09-06T03:41:08.422Z,4.37
2022-09-06T03:43:32.157Z,4.30
2022-09-06T03:45:55.741Z,4.67
2022-09-06T03:48:18.685Z,6.40
2022-09-06T03:50:44.259Z,6.33
2022-09-06T03:53:06.531Z,5.17
2022-09-06T03:55:28.818Z,5.30
2022-09-06T03:57:51.209Z,5.93
2022-09-06T04:00:13.993Z,5.60
2022-09-06T04:02:36.437Z,5.70
2022-09-06T04:04:58.780Z,5.93
2022-09-06T04:07:21.079Z,5.70
2022-09-06T04:09:43.339Z,4.97
2022-09-06T04:12:05.652Z,5.07
2022-09-06T04:14:27.973Z,5.20
2022-09-06T04:16:50.492Z,4.80
2022-09-06T04:19:12.888Z,4.53
2022-09-06T04:21:35.845Z,4.10
2022-09-06T04:23:58.312Z,4.70
2022-09-06T04:26:20.750Z,5.27
2022-09-06T04:28:43.017Z,4.80
2022-09-06T04:31:05.701Z,5.50
2022-09-06T04:33:28.657Z,6.13
2022-09-06T04:35:51.234Z,5.37
2022-09-06T04:38:13.541Z,5.77
2022-09-06T04:40:35.838Z,5.20
2022-09-06T04:42:58.193Z,5.37
2022-09-06T04:45:20.692Z,5.40
2022-09-06T04:47:43.004Z,6.20
2022-09-06T04:50:05.361Z,6.60
2022-09-06T04:52:30.199Z,5.33
2022-09-06T04:54:52.660Z,5.57
2022-09-06T04:57:15.002Z,5.10
2022-09-06T04:59:42.087Z,6.10
2022-09-06T05:02:04.761Z,5.67
2022-09-06T05:04:27.234Z,6.30
2022-09-06T05:06:49.615Z,6.37
2022-09-06T05:09:12.230Z,6.40
2022-09-06T05:11:34.597Z,6.37
2022-09-06T05:13:56.828Z,5.60
2022-09-06T05:16:19.224Z,6.63
2022-09-06T05:18:41.808Z,6.50
2022-09-06T05:21:04.191Z,6.63
2022-09-06T05:23:26.687Z,6.07
2022-09-06T05:25:49.404Z,6.53
2022-09-06T05:28:11.724Z,6.10
2022-09-06T05:30:34.004Z,6.40
2022-09-06T05:32:56.291Z,5.37
2022-09-06T05:35:18.496Z,4.15
2022-09-06T05:37:40.950Z,4.40
2022-09-06T05:40:03.368Z,4.50
2022-09-06T05:42:25.692Z,5.10
2022-09-06T05:44:48.016Z,5.80
2022-09-06T05:47:10.289Z,5.95
2022-09-06T05:49:32.982Z,6.10
2022-09-06T05:51:55.229Z,6.28
2022-09-06T05:54:17.510Z,5.60
2022-09-06T05:56:39.769Z,6.90
2022-09-06T05:59:02.052Z,7.20
2022-09-06T06:01:26.796Z,6.60
2022-09-06T06:04:03.074Z,6.57
2022-09-06T06:06:26.453Z,8.05
2022-09-06T06:08:49.025Z,7.50
2022-09-06T06:11:11.879Z,7.03
2022-09-06T06:13:39.573Z,7.03
2022-09-06T06:16:03.319Z,6.50
2022-09-06T06:18:25.649Z,7.10
2022-09-06T06:20:47.911Z,6.85
2022-09-06T06:23:10.202Z,7.13
2022-09-06T06:25:32.456Z,7.22
2022-09-06T06:27:54.834Z,7.13
2022-09-06T06:30:18.755Z,7.70
2022-09-06T06:32:41.076Z,7.95
2022-09-06T06:35:03.392Z,7.60
2022-09-06T06:37:25.701Z,7.88
2022-09-06T06:39:48.158Z,7.38
2022-09-06T06:42:10.508Z,8.05
2022-09-06T06:44:41.942Z,7.78
2022-09-06T06:47:04.376Z,7.72
2022-09-06T06:49:26.680Z,7.45
2022-09-06T06:51:48.959Z,7.38
2022-09-06T06:54:11.309Z,7.03
2022-09-06T06:56:38.179Z,7.35
2022-09-06T06:59:04.977Z,6.15
2022-09-06T07:01:28.558Z,6.00
2022-09-06T07:03:51.256Z,6.60
2022-09-06T07:06:14.244Z,6.38
2022-09-06T07:08:39.772Z,6.00
2022-09-06T07:11:02.076Z,5.50
2022-09-06T07:13:24.365Z,5.32
2022-09-06T07:15:46.637Z,5.07
2022-09-06T07:18:08.936Z,4.10
2022-09-06T07:20:31.415Z,4.07
2022-09-06T07:25:47.283Z,2.97
2022-09-06T07:28:09.765Z,3.00
2022-09-06T07:30:32.145Z,3.08
2022-09-06T07:32:54.455Z,3.05
2022-09-06T07:35:16.887Z,2.58
2022-09-06T07:37:39.160Z,3.20
2022-09-06T07:40:01.683Z,2.75
2022-09-06T07:42:24.127Z,3.03
2022-09-06T07:44:46.517Z,2.83
2022-09-06T07:55:17.444Z,2.95
2022-09-06T07:57:39.753Z,2.70
2022-09-06T08:00:02.132Z,2.78
2022-09-06T08:02:34.092Z,2.53
2022-09-06T08:04:56.837Z,2.60
2022-09-06T08:10:01.404Z,2.67
2022-09-06T08:12:23.995Z,3.25
2022-09-06T08:14:46.473Z,2.75
2022-09-06T08:17:10.738Z,2.88
2022-09-06T08:19:36.859Z,3.03
2022-09-06T08:21:59.414Z,2.58
2022-09-06T08:24:21.958Z,2.45
2022-09-06T08:26:44.205Z,2.67
2022-09-06T08:29:07.720Z,2.25
2022-09-06T08:31:31.052Z,2.55
2022-09-06T08:33:54.051Z,2.08
2022-09-06T08:36:16.682Z,2.20
2022-09-06T08:38:39.066Z,1.95
2022-09-06T08:41:12.679Z,2.35
2022-09-06T08:43:35.318Z,2.35
2022-09-06T08:45:57.608Z,2.30
2022-09-06T08:48:19.882Z,1.83
2022-09-06T08:50:45.360Z,1.95
2022-09-06T08:53:20.448Z,1.92
2022-09-06T08:55:42.703Z,1.90
2022-09-06T08:58:13.288Z,1.95
2022-09-06T09:00:39.972Z,1.60
2022-09-06T09:03:31.845Z,2.13
2022-09-06T09:05:54.385Z,1.90
2022-09-06T09:08:24.884Z,1.58
2022-09-06T09:10:49.039Z,1.70
2022-09-06T09:13:17.408Z,2.03
2022-09-06T09:15:40.514Z,1.90
2022-09-06T09:18:03.072Z,1.95
2022-09-06T09:20:25.360Z,2.00
2022-09-06T09:22:47.717Z,1.63
2022-09-06T09:25:14.516Z,1.90
2022-09-06T09:27:37.412Z,1.90
2022-09-06T09:32:49.502Z,2.30
2022-09-06T09:35:24.108Z,1.95
2022-09-06T09:37:47.071Z,2.00
2022-09-06T09:40:15.981Z,1.45
2022-09-06T09:42:39.198Z,1.77
2022-09-06T09:45:02.446Z,1.48
2022-09-06T09:47:28.614Z,1.27
2022-09-06T09:49:50.955Z,1.35
2022-09-06T09:52:15.139Z,1.40
2022-09-06T09:54:39.071Z,1.52
2022-09-06T09:57:01.572Z,1.60
2022-09-06T09:59:25.977Z,1.95
2022-09-06T10:01:48.707Z,1.52
2022-09-06T10:12:38.934Z,1.77
2022-09-06T10:15:03.697Z,1.92
2022-09-06T10:17:47.495Z,1.73
2022-09-06T10:20:10.773Z,1.80
2022-09-06T10:25:39.717Z,1.92
2022-09-06T10:28:20.944Z,1.65
2022-09-06T10:30:56.853Z,1.92
2022-09-06T10:36:14.546Z,1.60
2022-09-06T10:38:44.380Z,1.55
2022-09-06T10:41:29.591Z,1.63
2022-09-06T10:44:10.555Z,2.10
2022-09-06T10:46:37.044Z,1.77
2022-09-06T10:48:59.968Z,1.60
2022-09-06T10:51:26.545Z,2.17
2022-09-06T10:54:02.947Z,2.05
2022-09-06T10:56:49.729Z,1.73
2022-09-06T11:02:00.552Z,2.00
2022-09-06T11:07:25.484Z,1.75
2022-09-06T11:09:51.004Z,1.65
2022-09-06T11:12:23.800Z,1.40
2022-09-06T11:14:47.187Z,1.80
2022-09-06T11:17:22.485Z,1.75
2022-09-06T11:19:55.218Z,1.73
2022-09-06T11:22:30.012Z,1.70
2022-09-06T11:25:15.077Z,2.10
2022-09-06T11:27:40.474Z,1.60
2022-09-06T11:30:04.016Z,2.15
2022-09-06T11:32:26.419Z,1.77
2022-09-06T11:34:54.467Z,1.90
2022-09-06T11:37:32.656Z,1.90
2022-09-06T11:42:49.280Z,1.83
2022-09-06T11:45:11.512Z,2.00
2022-09-06T11:47:48.087Z,1.90
2022-09-06T11:50:24.384Z,1.73
2022-09-06T11:53:03.043Z,1.50
2022-09-06T11:55:44.624Z,1.83
2022-09-06T11:58:20.305Z,1.42
2022-09-06T12:01:08.862Z,2.25
2022-09-06T12:06:41.442Z,1.60
2022-09-06T12:09:23.799Z,1.70
2022-09-06T12:11:46.305Z,1.67
2022-09-06T12:14:27.284Z,1.42
2022-09-06T12:16:58.657Z,1.58
2022-09-06T12:19:44.042Z,1.70
2022-09-06T12:22:25.833Z,1.60
2022-09-06T12:24:49.470Z,1.48
2022-09-06T12:27:18.807Z,1.60
2022-09-06T12:29:49.694Z,1.80
2022-09-06T12:32:13.871Z,1.90
2022-09-06T12:34:36.557Z,1.73
2022-09-06T12:37:02.413Z,1.95
2022-09-06T12:39:25.791Z,2.25
2022-09-06T12:41:50.377Z,1.83
2022-09-06T12:44:14.393Z,1.98
2022-09-06T12:46:39.335Z,1.70
2022-09-06T12:49:03.580Z,1.92
2022-09-06T12:51:26.548Z,1.60
2022-09-06T12:53:56.352Z,1.50
2022-09-06T12:56:21.215Z,1.80
2022-09-06T12:58:43.573Z,1.60
2022-09-06T13:01:15.645Z,1.52
2022-09-06T13:03:44.517Z,1.75
2022-09-06T13:06:07.841Z,1.40
2022-09-06T13:08:34.301Z,1.90
2022-09-06T13:10:56.986Z,1.33
2022-09-06T13:13:26.066Z,1.50
2022-09-06T13:15:48.546Z,1.63
2022-09-06T13:18:29.707Z,1.45
2022-09-06T13:21:00.202Z,1.23
2022-09-06T13:23:22.747Z,1.55
2022-09-06T13:25:53.065Z,1.63
2022-09-06T13:28:25.950Z,1.50
2022-09-06T13:31:03.242Z,1.50
2022-09-06T13:33:26.703Z,1.83
2022-09-06T13:35:52.347Z,1.52
2022-09-06T13:38:41.051Z,1.38
2022-09-06T13:41:12.607Z,1.60
2022-09-06T13:43:45.105Z,1.40
2022-09-06T13:46:09.269Z,1.20
2022-09-06T13:48:34.328Z,1.30
2022-09-06T13:50:56.810Z,1.38
2022-09-06T13:53:22.440Z,1.50
2022-09-06T13:55:44.843Z,1.73
2022-09-06T13:58:09.112Z,1.42
2022-09-06T14:00:31.485Z,1.15
2022-09-06T14:02:55.594Z,1.48
2022-09-06T14:05:18.012Z,1.48
2022-09-06T14:07:40.424Z,1.38
2022-09-06T14:10:06.137Z,1.38
2022-09-06T14:12:28.880Z,1.20
2022-09-06T14:14:54.481Z,1.40
2022-09-06T14:19:55.535Z,1.48
2022-09-06T14:22:17.915Z,1.52
2022-09-06T14:24:40.511Z,1.38
2022-09-06T14:27:05.144Z,1.52
2022-09-06T14:29:28.476Z,1.20
2022-09-06T14:31:51.046Z,1.52
2022-09-06T14:34:13.398Z,1.25
2022-09-06T14:36:35.763Z,1.20
2022-09-06T14:39:02.011Z,1.60
2022-09-06T14:41:24.304Z,1.55
2022-09-06T14:43:52.032Z,1.65
2022-09-06T14:46:15.134Z,1.35
2022-09-06T14:48:41.986Z,1.17
2022-09-06T14:51:12.188Z,1.35
2022-09-06T14:53:40.370Z,1.92
2022-09-06T14:56:03.916Z,1.45
2022-09-06T14:58:26.241Z,1.63
2022-09-06T15:00:50.157Z,1.60
2022-09-06T15:03:14.762Z,1.30
2022-09-06T15:05:37.188Z,1.30
2022-09-06T15:07:59.548Z,1.33
2022-09-06T15:10:22.007Z,1.48
2022-09-06T15:12:44.576Z,1.85
2022-09-06T15:15:07.000Z,1.67
2022-09-06T15:17:32.412Z,1.13
2022-09-06T15:19:54.789Z,1.75
2022-09-06T15:22:17.108Z,1.67
2022-09-06T15:24:40.436Z,1.20
2022-09-06T15:27:04.984Z,1.42
2022-09-06T15:29:27.581Z,1.50
2022-09-06T15:31:53.173Z,1.02
2022-09-06T15:34:15.587Z,1.30
2022-09-06T15:36:38.314Z,1.50
2022-09-06T15:39:01.608Z,1.60
2022-09-06T15:41:26.493Z,1.45
2022-09-06T15:43:50.610Z,1.58
2022-09-06T15:46:13.312Z,1.48
2022-09-06T15:48:43.542Z,1.30
2022-09-06T15:51:06.160Z,1.38
2022-09-06T15:53:28.676Z,1.60
2022-09-06T15:55:58.812Z,1.45
2022-09-06T15:58:22.713Z,1.27
2022-09-06T16:00:45.351Z,1.25
2022-09-06T16:03:07.783Z,1.20
2022-09-06T16:08:15.591Z,1.48
2022-09-06T16:10:39.573Z,1.20
2022-09-06T16:13:02.563Z,1.40
2022-09-06T16:15:26.421Z,1.15
2022-09-06T16:17:49.172Z,1.65
2022-09-06T16:20:16.203Z,1.42
2022-09-06T16:22:41.400Z,1.45
2022-09-06T16:25:09.481Z,1.65
2022-09-06T16:27:32.336Z,1.65
2022-09-06T16:29:55.559Z,1.52
2022-09-06T16:32:18.108Z,1.40
2022-09-06T16:34:41.033Z,1.33
2022-09-06T16:37:08.009Z,1.27
2022-09-06T16:39:30.802Z,1.38
2022-09-06T16:41:53.331Z,1.08
2022-09-06T16:44:18.920Z,1.35
2022-09-06T16:46:41.862Z,1.30
2022-09-06T16:49:04.681Z,1.42
2022-09-06T16:51:31.564Z,1.20
2022-09-06T16:53:54.764Z,1.17
2022-09-06T16:56:18.910Z,1.45
2022-09-06T16:58:44.768Z,1.08
2022-09-06T17:01:08.499Z,1.13
2022-09-06T17:03:31.565Z,1.05
2022-09-06T17:05:54.398Z,0.98
2022-09-06T17:08:16.835Z,1.00
2022-09-06T17:10:49.291Z,1.50
2022-09-06T17:13:13.165Z,1.10
2022-09-06T17:16:01.675Z,1.25
2022-09-06T17:18:26.759Z,1.30
2022-09-06T17:21:08.209Z,2.30
2022-09-06T17:23:31.216Z,1.40
2022-09-06T17:25:54.109Z,2.03
2022-09-06T17:28:18.905Z,1.50
2022-09-06T17:30:46.964Z,1.73
2022-09-06T17:33:12.580Z,1.27
2022-09-06T17:35:35.548Z,1.38
2022-09-06T17:37:59.753Z,1.35
2022-09-06T17:40:22.268Z,1.50
2022-09-06T17:42:48.019Z,1.70
2022-09-06T17:45:10.479Z,1.58
2022-09-06T17:47:36.029Z,1.27
2022-09-06T17:49:58.441Z,1.60
2022-09-06T17:52:23.153Z,1.70
2022-09-06T17:54:46.901Z,1.60
2022-09-06T17:57:09.333Z,1.50
2022-09-06T17:59:35.752Z,1.70
2022-09-06T18:01:58.628Z,1.40
2022-09-06T18:04:21.203Z,1.98
2022-09-06T18:06:46.339Z,1.40
2022-09-06T18:09:10.229Z,1.90
2022-09-06T18:11:33.337Z,1.60
2022-09-06T18:13:56.719Z,1.70
2022-09-06T18:16:19.003Z,2.40
2022-09-06T18:18:41.557Z,1.95
2022-09-06T18:21:06.906Z,2.20
2022-09-06T18:23:29.917Z,1.70
2022-09-06T18:26:01.292Z,1.52
2022-09-06T18:28:23.631Z,2.28
2022-09-06T18:30:45.942Z,1.40
2022-09-06T18:33:11.867Z,1.90
2022-09-06T18:35:34.124Z,1.45
2022-09-06T18:37:56.382Z,2.00
2022-09-06T18:40:18.662Z,1.60
2022-09-06T18:42:44.677Z,1.60
2022-09-06T18:45:07.129Z,1.45
2022-09-06T18:47:29.355Z,1.90
2022-09-06T18:49:51.659Z,1.83
2022-09-06T18:52:14.707Z,1.90
2022-09-06T18:54:37.037Z,1.67
2022-09-06T18:57:00.002Z,1.70
2022-09-06T18:59:22.395Z,1.33
2022-09-06T19:01:44.861Z,2.35
2022-09-06T19:04:08.184Z,1.50
2022-09-06T19:06:36.954Z,1.90
2022-09-06T19:09:00.166Z,1.70
2022-09-06T19:11:25.817Z,2.13
2022-09-06T19:13:51.014Z,1.85
2022-09-06T19:16:14.737Z,2.00
2022-09-06T19:18:41.309Z,1.85
2022-09-06T19:21:05.116Z,1.75
2022-09-06T19:23:30.598Z,1.88
2022-09-06T19:25:57.754Z,1.67
2022-09-06T19:28:23.230Z,1.77
2022-09-06T19:30:45.973Z,2.05
2022-09-06T19:33:08.784Z,1.80
2022-09-06T19:35:31.272Z,1.90
2022-09-06T19:37:53.650Z,1.60
2022-09-06T19:40:21.910Z,1.63
2022-09-06T19:42:46.807Z,1.90
2022-09-06T19:45:09.758Z,2.25
2022-09-06T19:47:32.073Z,2.08
2022-09-06T19:49:54.544Z,2.08
2022-09-06T19:52:19.371Z,1.90
2022-09-06T19:54:42.588Z,2.03
2022-09-06T19:57:08.905Z,2.70
2022-09-06T19:59:31.452Z,2.58
2022-09-06T20:01:54.007Z,2.40
2022-09-06T20:04:16.638Z,2.80
2022-09-06T20:06:42.110Z,2.13
2022-09-06T20:09:05.766Z,2.72
2022-09-06T20:11:33.944Z,2.25
2022-09-06T20:13:56.754Z,2.20
2022-09-06T20:16:20.990Z,2.67
2022-09-06T20:18:46.542Z,2.67
2022-09-06T20:21:09.046Z,2.60
2022-09-06T20:23:33.650Z,2.58
2022-09-06T20:26:03.663Z,2.53
2022-09-06T20:28:26.743Z,2.50
2022-09-06T20:30:49.436Z,2.38
2022-09-06T20:33:11.895Z,2.03
2022-09-06T20:35:37.113Z,2.17
2022-09-06T20:37:59.534Z,2.35
2022-09-06T20:40:25.234Z,1.95
2022-09-06T20:42:48.261Z,2.20
2022-09-06T20:45:11.055Z,2.20
2022-09-06T20:47:36.476Z,2.58
2022-09-06T20:49:58.917Z,2.38
2022-09-06T20:52:21.239Z,2.60
2022-09-06T20:54:43.559Z,2.65
2022-09-06T20:57:05.917Z,2.95
2022-09-06T20:59:28.693Z,2.50
2022-09-06T21:01:51.020Z,2.42
2022-09-06T21:04:17.850Z,2.70
2022-09-06T21:06:40.464Z,2.50
2022-09-06T21:09:07.007Z,2.63
2022-09-06T21:11:31.031Z,2.40
2022-09-06T21:13:56.072Z,2.75
2022-09-06T21:16:23.496Z,3.50
2022-09-06T21:18:51.073Z,3.20
2022-09-06T21:21:13.473Z,2.65
2022-09-06T21:23:37.711Z,3.20
2022-09-06T21:26:01.053Z,2.45
2022-09-06T21:28:30.382Z,3.35
2022-09-06T21:31:03.163Z,2.80
2022-09-06T21:33:27.597Z,2.83
2022-09-06T21:35:55.817Z,2.90
2022-09-06T21:38:35.760Z,2.55
2022-09-06T21:43:37.422Z,2.70
2022-09-06T21:46:03.710Z,3.17
2022-09-06T21:48:29.066Z,2.58
2022-09-06T21:50:52.652Z,2.65
2022-09-06T21:53:19.176Z,2.80
2022-09-06T21:55:47.861Z,3.88
2022-09-06T21:58:12.112Z,4.65
2022-09-06T22:00:35.138Z,4.32
2022-09-06T22:02:57.527Z,4.28
2022-09-06T22:05:20.011Z,3.88
2022-09-06T22:07:42.377Z,3.75
2022-09-06T22:10:04.942Z,3.83
2022-09-06T22:12:29.520Z,3.75
2022-09-06T22:14:51.855Z,3.92
2022-09-06T22:17:14.932Z,5.10
2022-09-06T22:19:37.794Z,4.15
2022-09-06T22:22:00.200Z,3.92
2022-09-06T22:24:22.568Z,4.28
2022-09-06T22:26:45.705Z,4.32
2022-09-06T22:29:09.981Z,4.20
2022-09-06T22:31:33.392Z,4.32
2022-09-06T22:33:56.296Z,4.93
2022-09-06T22:36:20.466Z,5.10
2022-09-06T22:38:43.009Z,5.30
2022-09-06T22:41:05.489Z,4.70
2022-09-06T22:43:28.843Z,4.72
2022-09-06T22:48:30.328Z,5.05
2022-09-06T22:50:54.697Z,4.22
2022-09-06T22:53:16.975Z,4.63
2022-09-06T22:55:39.348Z,5.05
2022-09-06T22:58:01.637Z,5.32
2022-09-06T23:00:23.847Z,5.05
2022-09-06T23:02:46.099Z,6.22
2022-09-06T23:05:08.731Z,6.35
2022-09-06T23:07:30.931Z,6.53
2022-09-06T23:09:53.388Z,6.78
2022-09-06T23:12:15.620Z,6.18
2022-09-06T23:14:37.924Z,6.00
2022-09-06T23:17:00.152Z,5.07
2022-09-06T23:19:22.380Z,3.97
2022-09-06T23:21:47.713Z,3.83
2022-09-06T23:24:09.959Z,3.67
2022-09-06T23:26:32.923Z,3.45
2022-09-06T23:28:58.585Z,2.92
2022-09-06T23:31:20.882Z,3.03
2022-09-06T23:33:43.637Z,2.97
2022-09-06T23:36:06.908Z,3.08
2022-09-06T23:38:29.276Z,2.78
2022-09-06T23:40:51.757Z,3.28
2022-09-06T23:43:14.018Z,3.40
2022-09-06T23:45:36.266Z,3.40
2022-09-06T23:47:58.493Z,3.63
2022-09-06T23:50:20.933Z,3.58
2022-09-06T23:52:43.275Z,3.40
2022-09-06T23:55:06.297Z,3.42
2022-09-06T23:57:28.600Z,4.00
2022-09-06T23:59:50.866Z,3.70
